MV Moseldijk — PBWK — position and weather

sailwx.info

Track history (hours):
 
Tides and Currents Weather Stations Pressure Air Temp Water Temp Dewpoint Dewpoint Depression Visibility Wind Speed Wind Dir Waves Ship Positions

MV Moseldijk

Last reported at 2015-Jan-21 08:28 UTC. Time now 2015-Jan-30 00:30 UTC.
Position N 37°53' E 020°23'.
Warning: this ship's position is 8 days out of date.

Length 90 m; draft 6.3 m.

Type: Cargo ship. MMSI: 246644000.

Date/timePositionNaut miles runAvg speedWind from/ knotsBaromVisibWave heightAir tempDewpointWater temp
2015-Jan-21 08:28N 37°53' E 020°23'215 8.6
2015-Jan-20 07:33N 37°16' E 024°51'10 9.9
2015-Jan-20 06:32N 37°24' E 024°59'1 0.6
2015-Jan-20 05:31N 37°25' E 024°59'0 0.0
2015-Jan-20 04:31N 37°25' E 024°59'0 0.1
2015-Jan-20 03:31N 37°25' E 024°59'4 4.5
2015-Jan-20 02:33N 37°27' E 025°04'1110.6
2015-Jan-20 01:32N 37°32' E 025°16'1110.7
2015-Jan-20 00:34N 37°41' E 025°22'1211.2
2015-Jan-19 23:29N 37°52' E 025°26'  
Track history (hours):
 
Tides and Currents Weather Stations Pressure Air Temp Water Temp Dewpoint Dewpoint Depression Visibility Wind Speed Wind Dir Waves Ship Positions

MV Moseldijk

Last reported at 2015-Jan-21 08:28 UTC. Time now 2015-Jan-30 00:30 UTC.
Position N 37°53' E 020°23'.
Warning: this ship's position is 8 days out of date.

Length 90 m; draft 6.3 m.

Type: Cargo ship. MMSI: 246644000.

Date/timePositionNaut miles runAvg speedWind from/ knotsBaromVisibWave heightAir tempDewpointWater temp
2015-Jan-21 08:28N 37°53' E 020°23'215 8.6
2015-Jan-20 07:33N 37°16' E 024°51'10 9.9
2015-Jan-20 06:32N 37°24' E 024°59'1 0.6
2015-Jan-20 05:31N 37°25' E 024°59'0 0.0
2015-Jan-20 04:31N 37°25' E 024°59'0 0.1
2015-Jan-20 03:31N 37°25' E 024°59'4 4.5
2015-Jan-20 02:33N 37°27' E 025°04'1110.6
2015-Jan-20 01:32N 37°32' E 025°16'1110.7
2015-Jan-20 00:34N 37°41' E 025°22'1211.2
2015-Jan-19 23:29N 37°52' E 025°26'  

Dump ship's entire track history